Time;durP1;ratioP1;P1;durP2;ratioP2;P2;SDS_P1;SDS_P2;PMS_P1;PMS_P2;Temp;Humidity;BMP_temperature;BMP_pressure;BME280_temperature;BME280_humidity;BME280_pressure;Samples;Min_cycle;Max_cycle;Signal;HPM_P1;HPM_P2
2024/02/28 00:00:12;;;;;;;;;6.00;5.25;;;;;12.15;100.00;101563.91;2108467;27;46480;-54
2024/02/28 00:01:12;;;;;;;;;6.67;6.00;;;;;12.17;100.00;101562.09;2110656;27;46504;-53
2024/02/28 00:02:13;;;;;;;;;6.00;6.00;;;;;12.29;100.00;101562.78;2112407;27;47051;-52
2024/02/28 00:03:13;;;;;;;;;8.00;7.00;;;;;12.23;100.00;101567.34;2111695;27;46105;-52
2024/02/28 00:04:13;;;;;;;;;8.67;8.00;;;;;12.38;100.00;101560.00;2111925;27;46819;-51
2024/02/28 00:05:14;;;;;;;;;7.00;6.00;;;;;12.42;100.00;101554.59;2111157;27;46677;-51
2024/02/28 00:06:16;;;;;;;;;6.00;6.00;;;;;12.44;100.00;101556.34;2081686;28;46437;-52
2024/02/28 00:07:18;;;;;;;;;7.00;6.00;;;;;12.43;100.00;101557.25;2082128;27;46972;-51
2024/02/28 00:08:20;;;;;;;;;8.25;8.25;;;;;12.44;100.00;101558.13;2099741;28;46464;-51
2024/02/28 00:09:20;;;;;;;;;7.50;7.25;;;;;12.43;100.00;101553.69;2099198;27;46403;-51
2024/02/28 00:10:21;;;;;;;;;7.33;7.00;;;;;12.44;100.00;101555.47;2097859;28;45642;-50
2024/02/28 00:11:21;;;;;;;;;7.00;6.00;;;;;12.45;100.00;101560.78;2099302;28;46298;-52
2024/02/28 00:12:21;;;;;;;;;9.00;8.33;;;;;12.22;100.00;101561.13;2098846;28;46507;-50
2024/02/28 00:13:23;;;;;;;;;6.33;6.33;;;;;12.17;100.00;101562.09;2112044;27;46195;-53
2024/02/28 00:14:23;;;;;;;;;8.00;6.25;;;;;12.11;100.00;101557.75;2110357;27;46361;-53
2024/02/28 00:15:23;;;;;;;;;7.00;6.00;;;;;12.33;100.00;101566.31;2112499;27;46255;-50
2024/02/28 00:16:24;;;;;;;;;7.33;5.33;;;;;12.16;100.00;101560.31;2112008;27;46859;-53
2024/02/28 00:17:24;;;;;;;;;6.00;6.00;;;;;12.11;100.00;101562.19;2111237;27;46606;-51
2024/02/28 00:18:24;;;;;;;;;8.67;8.33;;;;;12.15;100.00;101556.78;2112059;27;46173;-50
2024/02/28 00:19:25;;;;;;;;;7.67;7.67;;;;;12.19;100.00;101560.28;2089833;28;46768;-53
2024/02/28 00:20:27;;;;;;;;;7.33;6.33;;;;;12.23;100.00;101554.03;2090210;28;46750;-52
2024/02/28 00:21:27;;;;;;;;;8.25;7.00;;;;;12.23;100.00;101554.03;2099830;28;46788;-52
2024/02/28 00:22:27;;;;;;;;;8.33;7.67;;;;;12.31;100.00;101557.44;2099652;27;45207;-50
2024/02/28 00:23:28;;;;;;;;;7.00;6.33;;;;;12.31;100.00;101554.78;2111854;27;46508;-53
2024/02/28 00:24:29;;;;;;;;;6.00;6.00;;;;;12.26;100.00;101560.19;2111723;27;46598;-52
2024/02/28 00:25:29;;;;;;;;;7.75;6.75;;;;;12.31;100.00;101560.97;2093389;28;46654;-50
2024/02/28 00:26:30;;;;;;;;;5.33;5.33;;;;;12.26;100.00;101559.28;2093726;27;46629;-51
2024/02/28 00:27:30;;;;;;;;;8.00;8.00;;;;;12.21;100.00;101555.84;2090218;28;47559;-50
2024/02/28 00:28:30;;;;;;;;;10.67;9.33;;;;;12.20;100.00;101551.41;2088112;28;46566;-52
2024/02/28 00:29:31;;;;;;;;;7.00;7.00;;;;;12.21;100.00;101555.84;2111023;27;46270;-53
2024/02/28 00:30:32;;;;;;;;;9.00;7.00;;;;;12.17;100.00;101541.69;2109548;27;46802;-53
2024/02/28 00:31:33;;;;;;;;;2.00;2.00;;;;;12.21;100.00;101553.19;2109834;27;46036;-51
2024/02/28 00:32:33;;;;;;;;;4.00;4.00;;;;;12.16;100.00;101549.69;2107510;27;46882;-52
2024/02/28 00:33:33;;;;;;;;;9.00;8.00;;;;;12.29;100.00;101554.78;2108054;27;46692;-52
2024/02/28 00:34:34;;;;;;;;;8.33;7.00;;;;;12.30;100.00;101556.56;2108003;27;46452;-53
2024/02/28 00:35:34;;;;;;;;;4.67;4.67;;;;;12.30;100.00;101553.88;2106868;27;46889;-51
2024/02/28 00:36:35;;;;;;;;;6.00;6.00;;;;;12.04;100.00;101556.94;2108080;27;46205;-52
2024/02/28 00:37:35;;;;;;;;;9.00;8.00;;;;;11.97;100.00;101549.09;2106937;27;46161;-51
2024/02/28 00:38:35;;;;;;;;;6.00;6.00;;;;;11.95;100.00;101553.56;2107262;27;45790;-52
2024/02/28 00:39:36;;;;;;;;;6.67;6.33;;;;;11.96;100.00;101545.56;2107868;27;46503;-51
2024/02/28 00:40:36;;;;;;;;;7.33;7.33;;;;;11.95;100.00;101543.78;2107482;27;46244;-51
2024/02/28 00:41:37;;;;;;;;;8.00;6.00;;;;;11.97;100.00;101543.78;2107460;27;46689;-52
2024/02/28 00:42:37;;;;;;;;;6.50;6.00;;;;;11.94;100.00;101546.44;2107954;27;46147;-52
2024/02/28 00:43:38;;;;;;;;;6.33;6.33;;;;;11.91;100.00;101547.38;2106953;27;46299;-53
2024/02/28 00:44:38;;;;;;;;;8.67;7.33;;;;;11.90;100.00;101547.41;2106191;27;46811;-51
2024/02/28 00:45:39;;;;;;;;;7.00;7.00;;;;;11.91;100.00;101555.34;2106597;27;47523;-51
2024/02/28 00:46:39;;;;;;;;;9.33;8.67;;;;;11.92;100.00;101559.78;2106593;27;46621;-52
2024/02/28 00:47:40;;;;;;;;;8.33;7.33;;;;;11.91;100.00;101551.81;2109111;27;46841;-51
2024/02/28 00:48:41;;;;;;;;;7.00;6.00;;;;;11.92;100.00;101556.22;2108345;27;46406;-55
2024/02/28 00:49:41;;;;;;;;;9.00;9.00;;;;;11.90;100.00;101560.69;2109755;27;46326;-52
2024/02/28 00:50:42;;;;;;;;;11.33;11.33;;;;;11.91;100.00;101562.47;2110254;27;47191;-54
2024/02/28 00:51:42;;;;;;;;;6.00;6.00;;;;;11.90;100.00;101560.69;2109206;27;46277;-54
2024/02/28 00:52:42;;;;;;;;;6.67;6.67;;;;;11.88;100.00;101558.06;2110032;27;46321;-51
2024/02/28 00:53:43;;;;;;;;;9.67;7.00;;;;;11.88;100.00;101559.84;2101173;28;46594;-53
2024/02/28 00:54:43;;;;;;;;;7.00;7.00;;;;;11.88;100.00;101562.50;2101956;28;47138;-52
2024/02/28 00:55:43;;;;;;;;;8.67;5.33;;;;;11.88;100.00;101563.38;2109740;27;46883;-55
2024/02/28 00:56:44;;;;;;;;;7.33;6.67;;;;;11.88;100.00;101565.16;2109676;27;46513;-53
2024/02/28 00:57:44;;;;;;;;;7.00;7.00;;;;;11.88;100.00;101566.03;2104005;28;46529;-51
2024/02/28 00:58:45;;;;;;;;;7.33;7.33;;;;;11.88;100.00;101559.84;2103931;28;46005;-53
2024/02/28 00:59:45;;;;;;;;;8.00;8.00;;;;;11.88;100.00;101560.72;2109123;27;46376;-51
2024/02/28 01:00:48;;;;;;;;;7.33;6.00;;;;;11.88;100.00;101560.72;2108002;27;46192;-49
2024/02/28 01:01:49;;;;;;;;;9.00;7.50;;;;;11.87;100.00;101564.28;2109337;27;46642;-52
2024/02/28 01:02:49;;;;;;;;;9.75;7.50;;;;;11.88;100.00;101560.72;2109898;27;47153;-50
2024/02/28 01:03:49;;;;;;;;;8.33;7.33;;;;;11.88;100.00;101555.41;2109913;27;46626;-50
2024/02/28 01:04:50;;;;;;;;;9.00;7.00;;;;;11.87;100.00;101560.75;2109328;27;45605;-52
2024/02/28 01:05:53;;;;;;;;;8.67;8.67;;;;;11.87;100.00;101563.41;2109694;27;45800;-51
2024/02/28 01:06:53;;;;;;;;;6.75;6.00;;;;;11.85;100.00;101562.56;2109596;27;46594;-54
2024/02/28 01:07:54;;;;;;;;;9.67;9.67;;;;;11.86;100.00;101566.97;2109005;27;46298;-54
2024/02/28 01:08:54;;;;;;;;;10.00;8.00;;;;;11.85;100.00;101566.09;2110416;27;47240;-51
2024/02/28 01:09:54;;;;;;;;;9.33;8.33;;;;;11.83;100.00;101570.56;2109421;27;46302;-52
2024/02/28 01:10:55;;;;;;;;;7.50;6.50;;;;;11.82;100.00;101568.81;2110218;27;46244;-51
2024/02/28 01:11:55;;;;;;;;;10.33;8.00;;;;;11.82;100.00;101566.16;2110156;27;46242;-51
2024/02/28 01:12:55;;;;;;;;;9.00;8.00;;;;;11.80;100.00;101559.94;2110110;27;46595;-52
2024/02/28 01:13:55;;;;;;;;;7.00;5.00;;;;;11.82;100.00;101565.25;2110395;27;46373;-52
2024/02/28 01:14:56;;;;;;;;;9.67;7.67;;;;;11.78;100.00;101565.25;2109498;27;46670;-50
2024/02/28 01:15:56;;;;;;;;;9.00;7.00;;;;;11.79;100.00;101552.84;2100400;28;46462;-52
2024/02/28 01:16:57;;;;;;;;;8.67;8.00;;;;;11.79;100.00;101558.19;2094060;28;45616;-50
2024/02/28 01:17:57;;;;;;;;;9.67;8.33;;;;;11.78;100.00;101549.28;2101350;28;46788;-53
2024/02/28 01:18:58;;;;;;;;;8.00;7.00;;;;;11.76;100.00;101547.56;2109336;27;46431;-51
2024/02/28 01:19:58;;;;;;;;;5.67;5.67;;;;;11.76;100.00;101551.09;2110514;27;46870;-52
2024/02/28 01:20:59;;;;;;;;;7.67;7.67;;;;;11.76;100.00;101547.56;2109788;27;46273;-53
2024/02/28 01:21:59;;;;;;;;;5.33;5.33;;;;;11.77;100.00;101549.31;2108868;27;46258;-53
2024/02/28 01:22:59;;;;;;;;;6.00;6.00;;;;;11.77;100.00;101559.94;2109140;27;46284;-49
2024/02/28 01:24:00;;;;;;;;;8.67;7.67;;;;;11.77;100.00;101549.31;2109897;27;46514;-51
2024/02/28 01:25:01;;;;;;;;;7.00;7.00;;;;;11.76;100.00;101553.75;2109649;27;46731;-51
2024/02/28 01:26:03;;;;;;;;;9.33;8.33;;;;;11.78;100.00;101556.38;2108279;27;46681;-51
2024/02/28 01:27:04;;;;;;;;;9.00;7.75;;;;;11.79;100.00;101558.19;2095927;28;46656;-51
2024/02/28 01:28:04;;;;;;;;;12.00;10.67;;;;;11.80;100.00;101554.63;2096895;27;46661;-53
2024/02/28 01:29:05;;;;;;;;;9.33;9.00;;;;;11.80;100.00;101554.63;2110149;27;45201;-51
2024/02/28 01:30:06;;;;;;;;;13.00;9.00;;;;;11.82;100.00;101555.50;2110920;27;46406;-50
2024/02/28 01:31:06;;;;;;;;;9.00;8.00;;;;;11.82;100.00;101558.16;2109079;27;46325;-52
2024/02/28 01:32:07;;;;;;;;;10.00;8.67;;;;;11.83;100.00;101553.72;2108605;27;46544;-51
2024/02/28 01:33:07;;;;;;;;;8.00;7.00;;;;;11.82;100.00;101554.63;2109935;27;46335;-52
2024/02/28 01:34:08;;;;;;;;;10.67;9.00;;;;;11.79;100.00;101553.75;2109785;27;45860;-53
2024/02/28 01:35:09;;;;;;;;;9.67;8.00;;;;;11.78;100.00;101559.03;2100042;28;46383;-52
2024/02/28 01:36:11;;;;;;;;;7.50;7.50;;;;;11.78;100.00;101551.94;2100524;28;46697;-52
2024/02/28 01:37:12;;;;;;;;;10.50;10.50;;;;;11.73;100.00;101550.25;2109501;27;46847;-51
2024/02/28 01:38:12;;;;;;;;;6.75;6.00;;;;;11.73;100.00;101553.81;2109827;27;46798;-53
2024/02/28 01:39:13;;;;;;;;;12.33;12.00;;;;;11.73;100.00;101552.94;2108619;27;46535;-53
2024/02/28 01:40:13;;;;;;;;;9.00;8.00;;;;;11.72;100.00;101552.03;2109679;27;47058;-53
2024/02/28 01:41:13;;;;;;;;;10.67;8.00;;;;;11.67;100.00;101552.97;2109247;27;46809;-53
2024/02/28 01:42:15;;;;;;;;;9.00;8.67;;;;;11.64;100.00;101559.22;2109148;27;46635;-51
2024/02/28 01:43:15;;;;;;;;;9.00;8.50;;;;;11.62;100.00;101560.16;2095817;28;46482;-51
2024/02/28 01:44:15;;;;;;;;;7.00;7.00;;;;;11.63;100.00;101565.44;2096223;28;46504;-51
2024/02/28 01:45:16;;;;;;;;;7.00;7.00;;;;;11.61;100.00;101561.94;2109117;27;45422;-51
2024/02/28 01:46:27;;;;;;;;;10.00;8.33;;;;;11.63;100.00;101567.22;2109683;27;46291;-52
2024/02/28 01:47:27;;;;;;;;;8.25;8.00;;;;;11.61;100.00;101561.06;2108597;27;46573;-52
2024/02/28 01:48:28;;;;;;;;;10.00;8.33;;;;;11.62;100.00;101560.16;2109417;27;46781;-50
2024/02/28 01:49:29;;;;;;;;;11.33;8.67;;;;;11.61;100.00;101561.94;2109636;27;46609;-50
2024/02/28 01:50:29;;;;;;;;;9.50;7.50;;;;;11.62;100.00;101566.34;2107612;27;46545;-49
2024/02/28 01:51:30;;;;;;;;;10.00;9.00;;;;;11.62;100.00;101565.47;2109537;27;45522;-51
2024/02/28 01:52:30;;;;;;;;;9.33;8.67;;;;;11.60;100.00;101561.97;2109840;27;46762;-50
2024/02/28 01:53:31;;;;;;;;;11.33;9.00;;;;;11.61;100.00;101566.38;2109032;27;47212;-50
2024/02/28 01:54:34;;;;;;;;;8.33;8.33;;;;;11.60;100.00;101572.59;2111189;27;46202;-50
2024/02/28 01:55:36;;;;;;;;;12.50;8.25;;;;;11.70;100.00;101571.59;2108955;27;46305;-54
2024/02/28 01:56:36;;;;;;;;;8.75;7.50;;;;;11.75;100.00;101567.06;2107801;27;46506;-52
2024/02/28 01:57:37;;;;;;;;;8.00;8.00;;;;;11.78;100.00;101577.66;2101646;28;46216;-52
2024/02/28 01:58:38;;;;;;;;;8.67;8.00;;;;;11.79;100.00;101569.69;2101937;28;46774;-51
2024/02/28 01:59:40;;;;;;;;;10.75;8.00;;;;;11.73;100.00;101569.75;2107534;27;46603;-51
2024/02/28 02:00:41;;;;;;;;;9.00;6.50;;;;;11.66;100.00;101573.38;2096661;28;47002;-49
2024/02/28 02:01:42;;;;;;;;;9.00;9.00;;;;;11.72;100.00;101573.31;2098183;28;46705;-50
2024/02/28 02:02:43;;;;;;;;;8.25;8.00;;;;;11.64;100.00;101569.88;2108959;27;46966;-52
2024/02/28 02:03:44;;;;;;;;;9.00;8.00;;;;;11.64;100.00;101563.66;2108474;27;46648;-49
2024/02/28 02:04:44;;;;;;;;;8.25;8.00;;;;;11.62;100.00;101568.13;2107869;27;46779;-50
2024/02/28 02:05:45;;;;;;;;;10.33;8.00;;;;;11.68;100.00;101568.03;2105651;27;46561;-52
2024/02/28 02:06:47;;;;;;;;;8.33;7.33;;;;;11.65;100.00;101563.66;2105485;27;47307;-50
2024/02/28 02:07:48;;;;;;;;;9.50;8.00;;;;;11.66;100.00;101561.88;2108388;27;46477;-52
2024/02/28 02:08:49;;;;;;;;;9.00;9.00;;;;;11.70;100.00;101558.28;2108556;27;46444;-52
2024/02/28 02:09:50;;;;;;;;;8.00;8.00;;;;;11.71;100.00;101560.94;2108143;27;46264;-53
2024/02/28 02:10:50;;;;;;;;;5.00;4.00;;;;;11.62;100.00;101558.38;2107701;27;46380;-51
2024/02/28 02:11:50;;;;;;;;;9.00;9.00;;;;;11.59;100.00;101565.53;2108242;27;46484;-49
2024/02/28 02:12:51;;;;;;;;;9.00;9.00;;;;;11.57;100.00;101562.00;2106702;27;46575;-54
2024/02/28 02:13:53;;;;;;;;;10.00;8.67;;;;;11.55;100.00;101559.34;2107663;27;46690;-52
2024/02/28 02:14:53;;;;;;;;;6.50;6.50;;;;;11.53;100.00;101562.91;2107853;27;46522;-53
2024/02/28 02:15:53;;;;;;;;;7.00;7.00;;;;;11.57;100.00;101551.38;2107463;27;46531;-53
2024/02/28 02:16:54;;;;;;;;;8.00;8.00;;;;;11.58;100.00;101555.78;2108907;27;46616;-52
2024/02/28 02:17:54;;;;;;;;;8.00;8.00;;;;;11.56;100.00;101552.25;2108229;27;46992;-53
2024/02/28 02:18:54;;;;;;;;;7.67;7.67;;;;;11.64;100.00;101548.59;2108069;27;46367;-53
2024/02/28 02:19:55;;;;;;;;;8.00;8.00;;;;;11.58;100.00;101554.00;2108661;27;46012;-54
2024/02/28 02:21:04;;;;;;;;;4.67;3.33;;;;;11.53;100.00;101550.50;2107436;27;46302;-50
2024/02/28 02:22:07;;;;;;;;;7.00;7.00;;;;;11.52;100.00;101548.75;2108105;27;46690;-53
2024/02/28 02:23:08;;;;;;;;;9.75;8.50;;;;;11.60;100.00;101552.19;2107383;27;46724;-52
2024/02/28 02:24:08;;;;;;;;;11.00;9.67;;;;;11.65;100.00;101553.00;2106783;27;46823;-51
2024/02/28 02:25:09;;;;;;;;;9.00;8.67;;;;;11.65;100.00;101553.00;2108040;27;46493;-50
2024/02/28 02:26:09;;;;;;;;;9.00;8.00;;;;;11.65;100.00;101560.09;2107542;27;46422;-50
2024/02/28 02:27:09;;;;;;;;;11.00;8.00;;;;;11.63;100.00;101560.13;2107731;27;47132;-48
2024/02/28 02:28:10;;;;;;;;;11.67;10.33;;;;;11.61;100.00;101558.41;2109136;27;46650;-50
2024/02/28 02:29:10;;;;;;;;;8.00;8.00;;;;;11.61;100.00;101555.75;2107120;27;46124;-50
2024/02/28 02:30:11;;;;;;;;;8.00;8.00;;;;;11.50;100.00;101562.06;2106078;27;47088;-51
2024/02/28 02:31:12;;;;;;;;;8.50;8.50;;;;;11.51;100.00;101557.63;2084902;28;46051;-49
2024/02/28 02:32:13;;;;;;;;;10.50;10.25;;;;;11.60;100.00;101552.19;2084813;28;46539;-50
2024/02/28 02:33:13;;;;;;;;;8.00;8.00;;;;;11.63;100.00;101551.28;2109055;27;46201;-51
2024/02/28 02:34:13;;;;;;;;;7.33;7.00;;;;;11.66;100.00;101559.22;2081711;28;46613;-50
2024/02/28 02:35:14;;;;;;;;;12.33;8.00;;;;;11.66;100.00;101553.88;2082648;28;46872;-53
2024/02/28 02:36:14;;;;;;;;;10.00;8.67;;;;;11.66;100.00;101562.75;2108774;27;46657;-53
2024/02/28 02:37:15;;;;;;;;;5.00;5.00;;;;;11.68;100.00;101554.75;2108423;27;46314;-53
2024/02/28 02:38:15;;;;;;;;;9.00;7.00;;;;;11.68;100.00;101557.41;2108628;27;46802;-50
2024/02/28 02:39:16;;;;;;;;;10.00;10.00;;;;;11.71;100.00;101560.03;2107734;27;46603;-50
2024/02/28 02:40:16;;;;;;;;;13.67;9.33;;;;;11.71;100.00;101558.25;2107435;27;46459;-54
2024/02/28 02:41:18;;;;;;;;;8.67;8.67;;;;;11.73;100.00;101555.59;2106924;27;46410;-49
2024/02/28 02:42:18;;;;;;;;;9.75;8.75;;;;;11.71;100.00;101560.03;2108870;27;46956;-51
2024/02/28 02:43:18;;;;;;;;;8.33;8.00;;;;;11.71;100.00;101562.72;2107650;27;46646;-52
2024/02/28 02:44:18;;;;;;;;;8.67;8.67;;;;;11.70;100.00;101564.50;2108057;27;46839;-53
2024/02/28 02:45:19;;;;;;;;;13.00;10.67;;;;;11.66;100.00;101554.75;2108205;27;46691;-51
2024/02/28 02:46:19;;;;;;;;;12.00;8.00;;;;;11.67;100.00;101556.53;2108074;27;46621;-50
2024/02/28 02:47:20;;;;;;;;;8.00;8.00;;;;;11.67;100.00;101564.50;2107199;27;46732;-51
2024/02/28 02:48:20;;;;;;;;;8.33;8.00;;;;;11.66;100.00;101560.09;2107547;27;46197;-52
2024/02/28 02:49:21;;;;;;;;;14.00;12.33;;;;;11.66;100.00;101565.41;2108286;27;46818;-51
2024/02/28 02:50:21;;;;;;;;;12.33;12.33;;;;;11.66;100.00;101562.75;2107998;27;46543;-54
2024/02/28 02:51:21;;;;;;;;;11.33;10.00;;;;;11.66;100.00;101570.72;2106505;27;46354;-49
2024/02/28 02:52:22;;;;;;;;;12.00;9.00;;;;;11.64;100.00;101563.66;2108166;27;46193;-53
2024/02/28 02:53:22;;;;;;;;;8.00;6.33;;;;;11.62;100.00;101569.00;2107111;27;46334;-53
2024/02/28 02:54:22;;;;;;;;;11.67;9.67;;;;;11.63;100.00;101560.13;2108662;27;46612;-53
2024/02/28 02:55:23;;;;;;;;;10.00;9.00;;;;;11.61;100.00;101558.41;2107332;27;45958;-51
2024/02/28 02:56:23;;;;;;;;;8.33;8.33;;;;;11.62;100.00;101569.00;2107458;27;46669;-53
2024/02/28 02:57:23;;;;;;;;;16.00;13.00;;;;;11.63;100.00;101561.91;2105111;27;46637;-53
2024/02/28 02:58:24;;;;;;;;;9.00;9.00;;;;;11.64;100.00;101556.56;2107337;27;46168;-54
2024/02/28 02:59:24;;;;;;;;;13.00;11.00;;;;;11.63;100.00;101564.56;2108262;27;46450;-55
2024/02/28 03:00:24;;;;;;;;;10.00;10.00;;;;;11.60;100.00;101569.94;2107746;27;46413;-52
2024/02/28 03:01:25;;;;;;;;;14.33;11.00;;;;;11.52;100.00;101564.69;2107508;27;46360;-51
2024/02/28 03:02:25;;;;;;;;;13.67;12.33;;;;;11.44;100.00;101566.59;2099672;28;47006;-54
2024/02/28 03:03:25;;;;;;;;;9.00;9.00;;;;;11.39;100.00;101561.31;2099022;28;46745;-51
2024/02/28 03:04:25;;;;;;;;;9.67;9.67;;;;;11.48;100.00;101570.97;2107165;27;47163;-51
2024/02/28 03:05:26;;;;;;;;;9.00;9.00;;;;;11.49;100.00;101570.94;2108528;27;46183;-54
2024/02/28 03:06:27;;;;;;;;;12.00;12.00;;;;;11.49;100.00;101565.63;2107008;27;46946;-49
2024/02/28 03:07:27;;;;;;;;;9.00;9.00;;;;;11.49;100.00;101570.06;2107719;27;47153;-52
2024/02/28 03:08:27;;;;;;;;;10.33;10.33;;;;;11.46;100.00;101573.63;2107979;27;46610;-53
2024/02/28 03:09:28;;;;;;;;;9.00;9.00;;;;;11.46;100.00;101568.31;2098192;28;46216;-53
2024/02/28 03:10:28;;;;;;;;;10.00;10.00;;;;;11.44;100.00;101580.75;2098401;28;46368;-54
2024/02/28 03:11:29;;;;;;;;;10.33;9.00;;;;;11.46;100.00;101580.72;2107139;27;46862;-54
2024/02/28 03:12:29;;;;;;;;;12.00;12.00;;;;;11.46;100.00;101583.38;2107546;27;46628;-52
2024/02/28 03:13:29;;;;;;;;;12.00;10.00;;;;;11.50;100.00;101582.44;2108327;27;46693;-49
2024/02/28 03:14:30;;;;;;;;;10.67;9.33;;;;;11.49;100.00;101580.69;2106376;27;46379;-49
2024/02/28 03:15:30;;;;;;;;;9.33;8.00;;;;;11.51;100.00;101592.19;2100068;28;46481;-48
2024/02/28 03:16:31;;;;;;;;;13.00;11.67;;;;;11.50;100.00;101593.97;2099266;28;46258;-49
2024/02/28 03:17:31;;;;;;;;;11.33;11.33;;;;;11.50;100.00;101593.97;2107392;27;46602;-49
2024/02/28 03:18:31;;;;;;;;;10.00;9.33;;;;;11.50;100.00;101585.97;2106672;27;46382;-50
2024/02/28 03:19:32;;;;;;;;;9.00;9.00;;;;;11.47;100.00;101594.00;2106813;27;46626;-50
2024/02/28 03:20:32;;;;;;;;;11.67;10.33;;;;;11.47;100.00;101594.00;2107852;27;46437;-53
2024/02/28 03:21:32;;;;;;;;;12.67;10.00;;;;;11.47;100.00;101595.78;2107882;27;46326;-51
2024/02/28 03:22:33;;;;;;;;;12.33;10.00;;;;;11.43;100.00;101596.69;2107744;27;46366;-51
2024/02/28 03:23:35;;;;;;;;;13.67;12.67;;;;;11.45;100.00;101598.47;2108225;27;46375;-51
2024/02/28 03:24:36;;;;;;;;;8.50;8.50;;;;;11.39;100.00;101600.28;2107535;27;46400;-52
2024/02/28 03:25:36;;;;;;;;;13.33;13.33;;;;;11.38;100.00;101598.53;2092969;28;46822;-52
2024/02/28 03:26:37;;;;;;;;;12.00;8.33;;;;;11.36;100.00;101600.34;2094292;28;46510;-52
2024/02/28 03:27:37;;;;;;;;;13.67;12.00;;;;;11.34;100.00;101607.44;2107444;27;46607;-49
2024/02/28 03:28:37;;;;;;;;;12.67;11.67;;;;;11.37;100.00;101607.41;2085864;28;46232;-50
2024/02/28 03:29:38;;;;;;;;;12.33;12.00;;;;;11.40;100.00;101602.94;2085148;28;46815;-52
2024/02/28 03:30:38;;;;;;;;;12.00;10.33;;;;;11.37;100.00;101602.97;2107366;27;46651;-53
2024/02/28 03:31:39;;;;;;;;;10.33;10.33;;;;;11.36;100.00;101611.84;2106234;27;46183;-51
2024/02/28 03:32:39;;;;;;;;;11.50;8.75;;;;;11.39;100.00;101614.47;2107378;27;46450;-53
2024/02/28 03:33:39;;;;;;;;;8.00;8.00;;;;;11.44;100.00;101615.31;2108795;27;46713;-52
2024/02/28 03:34:40;;;;;;;;;12.33;9.00;;;;;11.44;100.00;101611.78;2108682;27;46971;-51
2024/02/28 03:35:40;;;;;;;;;10.00;10.00;;;;;11.44;100.00;101610.00;2107792;27;46795;-54
2024/02/28 03:36:40;;;;;;;;;12.33;11.00;;;;;11.44;100.00;101603.78;2108743;27;47191;-53
2024/02/28 03:37:41;;;;;;;;;9.67;9.67;;;;;11.43;100.00;101602.00;2107073;27;46202;-54
2024/02/28 03:38:41;;;;;;;;;10.00;10.00;;;;;11.43;100.00;101610.88;2098226;28;46631;-53
2024/02/28 03:39:41;;;;;;;;;9.00;9.00;;;;;11.43;100.00;101609.97;2099626;28;46789;-53
2024/02/28 03:40:42;;;;;;;;;10.33;10.33;;;;;11.42;100.00;101602.91;2107629;27;46799;-52
2024/02/28 03:41:42;;;;;;;;;12.00;12.00;;;;;11.41;100.00;101607.34;2109338;27;47142;-51
2024/02/28 03:42:42;;;;;;;;;11.33;10.00;;;;;11.44;100.00;101599.34;2106470;27;46861;-50
2024/02/28 03:43:43;;;;;;;;;9.00;8.00;;;;;11.52;100.00;101603.69;2106840;27;46780;-52
2024/02/28 03:44:43;;;;;;;;;9.00;9.00;;;;;11.52;100.00;101601.91;2108250;27;46577;-53
2024/02/28 03:45:43;;;;;;;;;13.33;11.33;;;;;11.46;100.00;101602.88;2107656;27;46840;-52
2024/02/28 03:46:44;;;;;;;;;11.00;9.67;;;;;11.45;100.00;101603.78;2107303;27;46847;-54
2024/02/28 03:47:44;;;;;;;;;10.67;9.67;;;;;11.44;100.00;101602.00;2108003;27;47083;-52
2024/02/28 03:48:45;;;;;;;;;13.67;12.00;;;;;11.44;100.00;101603.78;2106064;27;46348;-53
2024/02/28 03:49:45;;;;;;;;;9.67;9.00;;;;;11.46;100.00;101607.31;2108115;27;45762;-55
2024/02/28 03:50:45;;;;;;;;;13.00;9.67;;;;;11.56;100.00;101608.06;2104017;27;46399;-55
2024/02/28 03:51:46;;;;;;;;;9.67;9.67;;;;;11.60;100.00;101608.03;2107156;27;46246;-53
2024/02/28 03:52:46;;;;;;;;;13.00;13.00;;;;;11.55;100.00;101611.63;2108417;27;46507;-52
2024/02/28 03:53:46;;;;;;;;;16.33;13.00;;;;;11.51;100.00;101616.09;2107565;27;46630;-53
2024/02/28 03:54:47;;;;;;;;;10.67;8.67;;;;;11.54;100.00;101615.19;2106601;27;46461;-52
2024/02/28 03:55:47;;;;;;;;;9.00;7.00;;;;;11.55;100.00;101619.59;2107773;27;46937;-49
2024/02/28 03:56:47;;;;;;;;;10.67;10.00;;;;;11.53;100.00;101614.31;2107663;27;46603;-51
2024/02/28 03:57:48;;;;;;;;;9.00;9.00;;;;;11.50;100.00;101614.34;2107700;27;46643;-53
2024/02/28 03:58:48;;;;;;;;;12.00;10.33;;;;;11.51;100.00;101610.78;2107790;27;46159;-51
2024/02/28 03:59:49;;;;;;;;;11.33;11.33;;;;;11.50;100.00;101593.97;2107922;27;46186;-49
2024/02/28 04:00:49;;;;;;;;;12.00;12.00;;;;;11.52;100.00;101606.34;2107925;27;46777;-54
2024/02/28 04:01:50;;;;;;;;;11.00;8.33;;;;;11.52;100.00;101607.22;2107535;27;46421;-51
2024/02/28 04:02:50;;;;;;;;;10.33;9.00;;;;;11.53;100.00;101613.41;2107450;27;46940;-52
2024/02/28 04:03:50;;;;;;;;;12.33;11.33;;;;;11.54;100.00;101604.53;2108019;27;46182;-51
2024/02/28 04:04:51;;;;;;;;;14.00;12.33;;;;;11.54;100.00;101600.09;2106323;27;46364;-52
2024/02/28 04:05:51;;;;;;;;;13.33;12.33;;;;;11.53;100.00;101597.47;2104971;27;46665;-51
2024/02/28 04:06:51;;;;;;;;;10.00;10.00;;;;;11.52;100.00;101593.06;2107951;27;46334;-54
2024/02/28 04:07:52;;;;;;;;;9.00;9.00;;;;;11.52;100.00;101593.06;2107888;27;46090;-51
2024/02/28 04:08:52;;;;;;;;;13.00;12.00;;;;;11.48;100.00;101598.41;2108246;27;46300;-54
2024/02/28 04:09:52;;;;;;;;;11.67;11.67;;;;;11.49;100.00;101593.97;2107498;27;46224;-54
2024/02/28 04:10:53;;;;;;;;;10.33;9.00;;;;;11.46;100.00;101591.38;2108210;27;46253;-52
2024/02/28 04:11:54;;;;;;;;;10.67;9.33;;;;;11.48;100.00;101594.88;2107288;27;46778;-54
2024/02/28 04:12:54;;;;;;;;;14.33;13.67;;;;;11.48;100.00;101595.75;2106465;27;46432;-54
2024/02/28 04:13:54;;;;;;;;;12.33;12.33;;;;;11.48;100.00;101594.88;2108201;27;46124;-50
2024/02/28 04:14:54;;;;;;;;;15.67;14.00;;;;;11.47;100.00;101593.13;2107171;27;46583;-52
2024/02/28 04:15:55;;;;;;;;;15.67;13.00;;;;;11.42;100.00;101586.97;2107204;27;46421;-54
2024/02/28 04:16:56;;;;;;;;;12.67;12.67;;;;;11.45;100.00;101592.25;2109063;27;46146;-55
2024/02/28 04:17:56;;;;;;;;;16.25;15.25;;;;;11.42;100.00;101592.28;2106114;27;46868;-52
2024/02/28 04:18:56;;;;;;;;;13.67;13.67;;;;;11.46;100.00;101591.38;2107481;27;46613;-54
2024/02/28 04:19:57;;;;;;;;;14.00;14.00;;;;;11.46;100.00;101589.59;2108114;27;46437;-53
2024/02/28 04:20:57;;;;;;;;;15.33;13.00;;;;;11.47;100.00;101593.13;2107623;27;45885;-50
2024/02/28 04:21:58;;;;;;;;;16.00;14.67;;;;;11.46;100.00;101592.25;2106391;27;45785;-51
2024/02/28 04:22:58;;;;;;;;;14.67;12.00;;;;;11.46;100.00;101591.38;2107130;27;46447;-51
2024/02/28 04:23:58;;;;;;;;;11.75;11.25;;;;;11.42;100.00;101589.63;2098465;28;46430;-50
2024/02/28 04:24:59;;;;;;;;;13.00;13.00;;;;;11.41;100.00;101591.41;2099122;28;46192;-52
2024/02/28 04:25:59;;;;;;;;;12.33;12.33;;;;;11.37;100.00;101595.00;2106751;27;46699;-51
2024/02/28 04:27:00;;;;;;;;;9.33;9.33;;;;;11.41;100.00;101588.72;2099153;28;46213;-49
2024/02/28 04:28:00;;;;;;;;;14.33;13.00;;;;;11.31;100.00;101592.41;2098635;28;46575;-53
2024/02/28 04:29:03;;;;;;;;;15.00;12.67;;;;;11.27;100.00;101600.41;2103081;27;46370;-54
2024/02/28 04:30:07;;;;;;;;;11.75;11.75;;;;;11.27;100.00;101595.97;2107851;27;46717;-50
2024/02/28 04:31:09;;;;;;;;;15.75;14.25;;;;;11.23;100.00;101602.25;2107348;27;46577;-52
2024/02/28 04:32:09;;;;;;;;;15.50;14.00;;;;;11.30;100.00;101603.03;2106783;27;46696;-50
2024/02/28 04:33:09;;;;;;;;;14.33;14.00;;;;;11.25;100.00;101607.53;2107798;27;46336;-48
2024/02/28 04:34:10;;;;;;;;;13.00;13.00;;;;;11.27;100.00;101600.41;2107022;27;46221;-52
2024/02/28 04:35:10;;;;;;;;;14.33;13.67;;;;;11.27;100.00;101605.72;2106584;27;46600;-50
2024/02/28 04:36:10;;;;;;;;;13.00;13.00;;;;;11.28;100.00;101603.06;2107552;27;46289;-53